sensor_id;sensor_type;location;lat;lon;timestamp;P1;durP1;ratioP1;P2;durP2;ratioP2
43363;SDS011;40636;52.424;-1.948;2023-02-26T00:00:58;3.50;;;2.03;;
43363;SDS011;40636;52.424;-1.948;2023-02-26T00:03:25;5.97;;;2.50;;
43363;SDS011;40636;52.424;-1.948;2023-02-26T00:05:52;9.05;;;2.55;;
43363;SDS011;40636;52.424;-1.948;2023-02-26T00:08:19;5.95;;;2.22;;
43363;SDS011;40636;52.424;-1.948;2023-02-26T00:10:45;6.45;;;1.80;;
43363;SDS011;40636;52.424;-1.948;2023-02-26T00:13:13;5.28;;;2.50;;
43363;SDS011;40636;52.424;-1.948;2023-02-26T00:15:40;4.57;;;2.47;;
43363;SDS011;40636;52.424;-1.948;2023-02-26T00:18:08;5.35;;;2.72;;
43363;SDS011;40636;52.424;-1.948;2023-02-26T00:20:40;9.65;;;2.97;;
43363;SDS011;40636;52.424;-1.948;2023-02-26T00:23:11;8.20;;;2.22;;
43363;SDS011;40636;52.424;-1.948;2023-02-26T00:25:41;4.93;;;2.03;;
43363;SDS011;40636;52.424;-1.948;2023-02-26T00:28:08;3.38;;;1.77;;
43363;SDS011;40636;52.424;-1.948;2023-02-26T00:30:35;4.75;;;1.90;;
43363;SDS011;40636;52.424;-1.948;2023-02-26T00:33:02;5.70;;;2.47;;
43363;SDS011;40636;52.424;-1.948;2023-02-26T00:35:30;6.45;;;2.30;;
43363;SDS011;40636;52.424;-1.948;2023-02-26T00:38:02;6.32;;;2.28;;
43363;SDS011;40636;52.424;-1.948;2023-02-26T00:43:20;6.78;;;2.05;;
43363;SDS011;40636;52.424;-1.948;2023-02-26T00:46:02;12.25;;;2.47;;
43363;SDS011;40636;52.424;-1.948;2023-02-26T00:51:10;5.22;;;1.90;;
43363;SDS011;40636;52.424;-1.948;2023-02-26T00:56:49;4.38;;;2.75;;
43363;SDS011;40636;52.424;-1.948;2023-02-26T00:59:16;5.25;;;1.92;;
43363;SDS011;40636;52.424;-1.948;2023-02-26T01:01:44;8.48;;;1.85;;
43363;SDS011;40636;52.424;-1.948;2023-02-26T01:04:11;3.88;;;1.90;;
43363;SDS011;40636;52.424;-1.948;2023-02-26T01:06:44;6.65;;;2.45;;
43363;SDS011;40636;52.424;-1.948;2023-02-26T01:09:32;3.90;;;1.80;;
43363;SDS011;40636;52.424;-1.948;2023-02-26T01:12:04;5.03;;;2.03;;
43363;SDS011;40636;52.424;-1.948;2023-02-26T01:14:34;4.97;;;2.33;;
43363;SDS011;40636;52.424;-1.948;2023-02-26T01:17:07;4.35;;;1.85;;
43363;SDS011;40636;52.424;-1.948;2023-02-26T01:19:48;4.05;;;1.67;;
43363;SDS011;40636;52.424;-1.948;2023-02-26T01:24:51;6.57;;;1.75;;
43363;SDS011;40636;52.424;-1.948;2023-02-26T01:27:25;5.00;;;1.93;;
43363;SDS011;40636;52.424;-1.948;2023-02-26T01:29:51;3.13;;;2.25;;
43363;SDS011;40636;52.424;-1.948;2023-02-26T01:32:22;6.78;;;2.10;;
43363;SDS011;40636;52.424;-1.948;2023-02-26T01:42:53;9.73;;;2.97;;
43363;SDS011;40636;52.424;-1.948;2023-02-26T01:45:32;8.73;;;2.65;;
43363;SDS011;40636;52.424;-1.948;2023-02-26T01:48:05;7.32;;;2.05;;
43363;SDS011;40636;52.424;-1.948;2023-02-26T01:50:39;3.92;;;2.10;;
43363;SDS011;40636;52.424;-1.948;2023-02-26T01:55:46;5.55;;;1.73;;
43363;SDS011;40636;52.424;-1.948;2023-02-26T01:58:16;5.93;;;1.85;;
43363;SDS011;40636;52.424;-1.948;2023-02-26T02:00:45;8.85;;;2.08;;
43363;SDS011;40636;52.424;-1.948;2023-02-26T02:03:12;3.72;;;2.53;;
43363;SDS011;40636;52.424;-1.948;2023-02-26T02:05:46;6.53;;;2.28;;
43363;SDS011;40636;52.424;-1.948;2023-02-26T02:08:17;4.93;;;2.47;;
43363;SDS011;40636;52.424;-1.948;2023-02-26T02:10:45;12.65;;;3.03;;
43363;SDS011;40636;52.424;-1.948;2023-02-26T02:18:34;6.43;;;2.28;;
43363;SDS011;40636;52.424;-1.948;2023-02-26T02:29:42;9.15;;;2.40;;
43363;SDS011;40636;52.424;-1.948;2023-02-26T02:32:27;6.57;;;2.20;;
43363;SDS011;40636;52.424;-1.948;2023-02-26T02:35:29;8.25;;;2.30;;
43363;SDS011;40636;52.424;-1.948;2023-02-26T02:40:30;8.55;;;2.03;;
43363;SDS011;40636;52.424;-1.948;2023-02-26T02:43:05;5.13;;;2.80;;
43363;SDS011;40636;52.424;-1.948;2023-02-26T02:48:12;7.10;;;2.10;;
43363;SDS011;40636;52.424;-1.948;2023-02-26T02:50:47;6.53;;;1.63;;
43363;SDS011;40636;52.424;-1.948;2023-02-26T02:53:25;10.35;;;2.10;;
43363;SDS011;40636;52.424;-1.948;2023-02-26T02:56:17;4.45;;;2.08;;
43363;SDS011;40636;52.424;-1.948;2023-02-26T02:59:33;3.30;;;2.53;;
43363;SDS011;40636;52.424;-1.948;2023-02-26T03:01:45;2.38;;;1.52;;
43363;SDS011;40636;52.424;-1.948;2023-02-26T03:04:16;5.70;;;2.67;;
43363;SDS011;40636;52.424;-1.948;2023-02-26T03:06:43;7.55;;;2.20;;
43363;SDS011;40636;52.424;-1.948;2023-02-26T03:09:12;7.45;;;3.22;;
43363;SDS011;40636;52.424;-1.948;2023-02-26T03:11:38;3.83;;;1.60;;
43363;SDS011;40636;52.424;-1.948;2023-02-26T03:14:05;7.22;;;2.05;;
43363;SDS011;40636;52.424;-1.948;2023-02-26T03:16:42;4.70;;;1.88;;
43363;SDS011;40636;52.424;-1.948;2023-02-26T03:22:20;4.88;;;2.08;;
43363;SDS011;40636;52.424;-1.948;2023-02-26T03:25:06;6.32;;;2.70;;
43363;SDS011;40636;52.424;-1.948;2023-02-26T03:35:55;8.52;;;1.83;;
43363;SDS011;40636;52.424;-1.948;2023-02-26T03:38:46;9.50;;;2.35;;
43363;SDS011;40636;52.424;-1.948;2023-02-26T03:41:18;6.53;;;1.98;;
43363;SDS011;40636;52.424;-1.948;2023-02-26T03:43:55;5.18;;;2.40;;
43363;SDS011;40636;52.424;-1.948;2023-02-26T03:46:29;11.40;;;2.42;;
43363;SDS011;40636;52.424;-1.948;2023-02-26T03:49:06;7.45;;;2.38;;
43363;SDS011;40636;52.424;-1.948;2023-02-26T03:51:38;4.80;;;2.00;;
43363;SDS011;40636;52.424;-1.948;2023-02-26T03:54:18;5.22;;;1.80;;
43363;SDS011;40636;52.424;-1.948;2023-02-26T03:56:48;9.05;;;2.15;;
43363;SDS011;40636;52.424;-1.948;2023-02-26T03:59:16;3.88;;;2.67;;
43363;SDS011;40636;52.424;-1.948;2023-02-26T04:01:53;6.70;;;2.17;;
43363;SDS011;40636;52.424;-1.948;2023-02-26T04:06:56;4.65;;;1.85;;
43363;SDS011;40636;52.424;-1.948;2023-02-26T04:09:23;4.60;;;1.77;;
43363;SDS011;40636;52.424;-1.948;2023-02-26T04:11:50;5.28;;;2.80;;
43363;SDS011;40636;52.424;-1.948;2023-02-26T04:14:19;3.65;;;1.80;;
43363;SDS011;40636;52.424;-1.948;2023-02-26T04:16:46;7.03;;;3.00;;
43363;SDS011;40636;52.424;-1.948;2023-02-26T04:19:13;5.07;;;1.80;;
43363;SDS011;40636;52.424;-1.948;2023-02-26T04:21:40;7.30;;;2.00;;
43363;SDS011;40636;52.424;-1.948;2023-02-26T04:24:07;6.60;;;2.38;;
43363;SDS011;40636;52.424;-1.948;2023-02-26T04:26:33;6.78;;;2.38;;
43363;SDS011;40636;52.424;-1.948;2023-02-26T04:29:00;7.35;;;2.78;;
43363;SDS011;40636;52.424;-1.948;2023-02-26T04:31:27;6.18;;;2.63;;
43363;SDS011;40636;52.424;-1.948;2023-02-26T04:33:55;5.65;;;1.85;;
43363;SDS011;40636;52.424;-1.948;2023-02-26T04:36:21;7.32;;;2.47;;
43363;SDS011;40636;52.424;-1.948;2023-02-26T04:38:49;3.60;;;1.52;;
43363;SDS011;40636;52.424;-1.948;2023-02-26T04:41:16;6.43;;;2.20;;
43363;SDS011;40636;52.424;-1.948;2023-02-26T04:43:42;7.20;;;2.45;;
43363;SDS011;40636;52.424;-1.948;2023-02-26T04:46:09;9.27;;;1.75;;
43363;SDS011;40636;52.424;-1.948;2023-02-26T04:48:36;4.75;;;1.90;;
43363;SDS011;40636;52.424;-1.948;2023-02-26T04:51:03;5.20;;;1.58;;
43363;SDS011;40636;52.424;-1.948;2023-02-26T04:53:30;6.53;;;2.05;;
43363;SDS011;40636;52.424;-1.948;2023-02-26T04:55:57;8.23;;;2.22;;
43363;SDS011;40636;52.424;-1.948;2023-02-26T04:58:23;7.43;;;1.73;;
43363;SDS011;40636;52.424;-1.948;2023-02-26T05:00:50;8.20;;;2.17;;
43363;SDS011;40636;52.424;-1.948;2023-02-26T05:03:20;3.80;;;1.70;;
43363;SDS011;40636;52.424;-1.948;2023-02-26T05:05:47;6.60;;;1.98;;
43363;SDS011;40636;52.424;-1.948;2023-02-26T05:08:13;4.97;;;1.80;;
43363;SDS011;40636;52.424;-1.948;2023-02-26T05:10:40;6.78;;;1.95;;
43363;SDS011;40636;52.424;-1.948;2023-02-26T05:13:07;6.00;;;2.63;;
43363;SDS011;40636;52.424;-1.948;2023-02-26T05:15:33;9.25;;;2.75;;
43363;SDS011;40636;52.424;-1.948;2023-02-26T05:18:00;3.97;;;2.05;;
43363;SDS011;40636;52.424;-1.948;2023-02-26T05:20:27;5.07;;;2.05;;
43363;SDS011;40636;52.424;-1.948;2023-02-26T05:22:53;7.03;;;2.45;;
43363;SDS011;40636;52.424;-1.948;2023-02-26T05:25:20;8.25;;;2.22;;
43363;SDS011;40636;52.424;-1.948;2023-02-26T05:27:47;8.02;;;2.35;;
43363;SDS011;40636;52.424;-1.948;2023-02-26T05:30:14;4.80;;;2.00;;
43363;SDS011;40636;52.424;-1.948;2023-02-26T05:32:41;3.30;;;1.75;;
43363;SDS011;40636;52.424;-1.948;2023-02-26T05:35:08;5.13;;;2.20;;
43363;SDS011;40636;52.424;-1.948;2023-02-26T05:37:35;7.13;;;2.40;;
43363;SDS011;40636;52.424;-1.948;2023-02-26T05:40:03;12.38;;;2.72;;
43363;SDS011;40636;52.424;-1.948;2023-02-26T05:42:31;7.07;;;2.15;;
43363;SDS011;40636;52.424;-1.948;2023-02-26T05:44:58;4.82;;;2.53;;
43363;SDS011;40636;52.424;-1.948;2023-02-26T05:47:25;9.85;;;3.72;;
43363;SDS011;40636;52.424;-1.948;2023-02-26T05:49:52;4.88;;;2.30;;
43363;SDS011;40636;52.424;-1.948;2023-02-26T05:52:18;4.57;;;2.00;;
43363;SDS011;40636;52.424;-1.948;2023-02-26T05:54:45;5.40;;;2.05;;
43363;SDS011;40636;52.424;-1.948;2023-02-26T05:57:12;6.53;;;1.80;;
43363;SDS011;40636;52.424;-1.948;2023-02-26T05:59:38;5.60;;;2.13;;
43363;SDS011;40636;52.424;-1.948;2023-02-26T06:02:05;9.43;;;2.22;;
43363;SDS011;40636;52.424;-1.948;2023-02-26T06:04:33;4.40;;;1.98;;
43363;SDS011;40636;52.424;-1.948;2023-02-26T06:07:00;8.88;;;2.45;;
43363;SDS011;40636;52.424;-1.948;2023-02-26T06:09:27;6.38;;;2.15;;
43363;SDS011;40636;52.424;-1.948;2023-02-26T06:11:53;8.00;;;4.65;;
43363;SDS011;40636;52.424;-1.948;2023-02-26T06:14:20;5.32;;;1.98;;
43363;SDS011;40636;52.424;-1.948;2023-02-26T06:16:47;5.30;;;2.15;;
43363;SDS011;40636;52.424;-1.948;2023-02-26T06:19:13;7.38;;;2.20;;
43363;SDS011;40636;52.424;-1.948;2023-02-26T06:21:40;5.35;;;2.33;;
43363;SDS011;40636;52.424;-1.948;2023-02-26T06:24:07;4.93;;;1.73;;
43363;SDS011;40636;52.424;-1.948;2023-02-26T06:26:33;4.95;;;2.30;;
43363;SDS011;40636;52.424;-1.948;2023-02-26T06:29:00;5.30;;;2.22;;
43363;SDS011;40636;52.424;-1.948;2023-02-26T06:31:27;7.60;;;2.05;;
43363;SDS011;40636;52.424;-1.948;2023-02-26T06:33:54;4.03;;;1.98;;
43363;SDS011;40636;52.424;-1.948;2023-02-26T06:36:21;6.78;;;1.98;;
43363;SDS011;40636;52.424;-1.948;2023-02-26T06:38:48;6.28;;;2.40;;
43363;SDS011;40636;52.424;-1.948;2023-02-26T06:41:15;9.52;;;2.53;;
43363;SDS011;40636;52.424;-1.948;2023-02-26T06:43:41;5.47;;;2.40;;
43363;SDS011;40636;52.424;-1.948;2023-02-26T06:46:08;5.03;;;1.88;;
43363;SDS011;40636;52.424;-1.948;2023-02-26T06:48:35;11.98;;;2.70;;
43363;SDS011;40636;52.424;-1.948;2023-02-26T06:51:01;10.20;;;2.38;;
43363;SDS011;40636;52.424;-1.948;2023-02-26T06:53:28;5.25;;;2.10;;
43363;SDS011;40636;52.424;-1.948;2023-02-26T06:55:55;3.40;;;2.38;;
43363;SDS011;40636;52.424;-1.948;2023-02-26T06:58:22;9.65;;;2.28;;
43363;SDS011;40636;52.424;-1.948;2023-02-26T07:00:49;7.80;;;2.83;;
43363;SDS011;40636;52.424;-1.948;2023-02-26T07:03:17;3.95;;;2.58;;
43363;SDS011;40636;52.424;-1.948;2023-02-26T07:05:44;5.90;;;2.00;;
43363;SDS011;40636;52.424;-1.948;2023-02-26T07:08:12;7.97;;;2.28;;
43363;SDS011;40636;52.424;-1.948;2023-02-26T07:10:39;6.82;;;2.20;;
43363;SDS011;40636;52.424;-1.948;2023-02-26T07:13:06;9.30;;;2.65;;
43363;SDS011;40636;52.424;-1.948;2023-02-26T07:15:32;6.13;;;1.70;;
43363;SDS011;40636;52.424;-1.948;2023-02-26T07:17:59;5.45;;;1.85;;
43363;SDS011;40636;52.424;-1.948;2023-02-26T07:20:26;5.47;;;3.13;;
43363;SDS011;40636;52.424;-1.948;2023-02-26T07:22:54;3.35;;;2.10;;
43363;SDS011;40636;52.424;-1.948;2023-02-26T07:25:21;8.80;;;3.05;;
43363;SDS011;40636;52.424;-1.948;2023-02-26T07:27:48;9.27;;;2.10;;
43363;SDS011;40636;52.424;-1.948;2023-02-26T07:30:15;6.35;;;3.20;;
43363;SDS011;40636;52.424;-1.948;2023-02-26T07:32:42;8.10;;;2.00;;
43363;SDS011;40636;52.424;-1.948;2023-02-26T07:35:09;14.00;;;2.30;;
43363;SDS011;40636;52.424;-1.948;2023-02-26T07:37:36;4.55;;;1.92;;
43363;SDS011;40636;52.424;-1.948;2023-02-26T07:40:03;9.75;;;1.92;;
43363;SDS011;40636;52.424;-1.948;2023-02-26T07:42:30;10.90;;;2.35;;
43363;SDS011;40636;52.424;-1.948;2023-02-26T07:44:56;4.43;;;2.05;;
43363;SDS011;40636;52.424;-1.948;2023-02-26T07:47:24;8.00;;;2.72;;
43363;SDS011;40636;52.424;-1.948;2023-02-26T07:49:51;3.50;;;2.47;;
43363;SDS011;40636;52.424;-1.948;2023-02-26T07:52:17;7.63;;;2.65;;
43363;SDS011;40636;52.424;-1.948;2023-02-26T07:54:44;8.52;;;2.00;;
43363;SDS011;40636;52.424;-1.948;2023-02-26T07:57:11;10.40;;;2.78;;
43363;SDS011;40636;52.424;-1.948;2023-02-26T07:59:37;11.48;;;3.15;;
43363;SDS011;40636;52.424;-1.948;2023-02-26T08:02:04;6.25;;;2.00;;
43363;SDS011;40636;52.424;-1.948;2023-02-26T08:04:31;10.73;;;2.50;;
43363;SDS011;40636;52.424;-1.948;2023-02-26T08:06:59;6.15;;;2.40;;
43363;SDS011;40636;52.424;-1.948;2023-02-26T08:09:26;9.02;;;2.05;;
43363;SDS011;40636;52.424;-1.948;2023-02-26T08:11:53;7.35;;;2.15;;
43363;SDS011;40636;52.424;-1.948;2023-02-26T08:14:20;8.50;;;2.45;;
43363;SDS011;40636;52.424;-1.948;2023-02-26T08:16:47;8.77;;;2.92;;
43363;SDS011;40636;52.424;-1.948;2023-02-26T08:19:13;10.25;;;2.10;;
43363;SDS011;40636;52.424;-1.948;2023-02-26T08:21:40;3.65;;;1.45;;
43363;SDS011;40636;52.424;-1.948;2023-02-26T08:24:07;8.40;;;2.90;;
43363;SDS011;40636;52.424;-1.948;2023-02-26T08:26:34;10.20;;;2.00;;
43363;SDS011;40636;52.424;-1.948;2023-02-26T08:29:02;5.05;;;2.28;;
43363;SDS011;40636;52.424;-1.948;2023-02-26T08:31:29;5.45;;;2.20;;
43363;SDS011;40636;52.424;-1.948;2023-02-26T08:33:57;5.38;;;1.90;;
43363;SDS011;40636;52.424;-1.948;2023-02-26T08:36:24;4.95;;;2.13;;
43363;SDS011;40636;52.424;-1.948;2023-02-26T08:38:51;7.15;;;2.35;;
43363;SDS011;40636;52.424;-1.948;2023-02-26T08:41:18;7.03;;;2.10;;
43363;SDS011;40636;52.424;-1.948;2023-02-26T08:43:44;9.55;;;2.72;;
43363;SDS011;40636;52.424;-1.948;2023-02-26T08:46:11;5.90;;;2.22;;
43363;SDS011;40636;52.424;-1.948;2023-02-26T08:48:38;7.60;;;3.00;;
43363;SDS011;40636;52.424;-1.948;2023-02-26T08:51:04;6.32;;;2.05;;
43363;SDS011;40636;52.424;-1.948;2023-02-26T08:53:31;5.78;;;3.03;;
43363;SDS011;40636;52.424;-1.948;2023-02-26T08:55:58;4.70;;;1.95;;
43363;SDS011;40636;52.424;-1.948;2023-02-26T08:58:24;6.80;;;2.33;;
43363;SDS011;40636;52.424;-1.948;2023-02-26T09:00:52;8.35;;;2.53;;
43363;SDS011;40636;52.424;-1.948;2023-02-26T09:03:18;5.35;;;2.22;;
43363;SDS011;40636;52.424;-1.948;2023-02-26T09:05:45;7.75;;;1.70;;
43363;SDS011;40636;52.424;-1.948;2023-02-26T09:08:12;8.25;;;1.90;;
43363;SDS011;40636;52.424;-1.948;2023-02-26T09:10:41;9.15;;;2.10;;
43363;SDS011;40636;52.424;-1.948;2023-02-26T09:13:08;5.22;;;2.22;;
43363;SDS011;40636;52.424;-1.948;2023-02-26T09:15:34;5.93;;;2.08;;
43363;SDS011;40636;52.424;-1.948;2023-02-26T09:18:01;6.57;;;2.15;;
43363;SDS011;40636;52.424;-1.948;2023-02-26T09:20:28;3.92;;;2.40;;
43363;SDS011;40636;52.424;-1.948;2023-02-26T09:22:54;5.82;;;1.70;;
43363;SDS011;40636;52.424;-1.948;2023-02-26T09:25:21;5.18;;;1.80;;
43363;SDS011;40636;52.424;-1.948;2023-02-26T09:27:49;10.73;;;2.65;;
43363;SDS011;40636;52.424;-1.948;2023-02-26T09:30:16;11.13;;;1.98;;
43363;SDS011;40636;52.424;-1.948;2023-02-26T09:32:42;4.00;;;2.00;;
43363;SDS011;40636;52.424;-1.948;2023-02-26T09:35:09;6.05;;;1.90;;
43363;SDS011;40636;52.424;-1.948;2023-02-26T09:37:36;8.32;;;1.60;;
43363;SDS011;40636;52.424;-1.948;2023-02-26T09:40:03;13.20;;;2.28;;
43363;SDS011;40636;52.424;-1.948;2023-02-26T09:45:00;5.38;;;1.90;;
43363;SDS011;40636;52.424;-1.948;2023-02-26T09:47:39;7.53;;;2.53;;
43363;SDS011;40636;52.424;-1.948;2023-02-26T09:50:20;7.38;;;2.63;;
43363;SDS011;40636;52.424;-1.948;2023-02-26T09:52:55;7.80;;;2.63;;
43363;SDS011;40636;52.424;-1.948;2023-02-26T09:55:40;10.43;;;1.63;;
43363;SDS011;40636;52.424;-1.948;2023-02-26T10:03:48;6.13;;;2.28;;
43363;SDS011;40636;52.424;-1.948;2023-02-26T10:06:24;5.40;;;1.75;;
43363;SDS011;40636;52.424;-1.948;2023-02-26T10:09:29;11.05;;;1.80;;
43363;SDS011;40636;52.424;-1.948;2023-02-26T10:12:20;9.88;;;2.35;;
43363;SDS011;40636;52.424;-1.948;2023-02-26T10:17:37;6.57;;;1.65;;
43363;SDS011;40636;52.424;-1.948;2023-02-26T10:22:54;4.68;;;1.55;;
43363;SDS011;40636;52.424;-1.948;2023-02-26T10:25:35;2.92;;;1.50;;
43363;SDS011;40636;52.424;-1.948;2023-02-26T10:33:55;9.70;;;2.13;;
43363;SDS011;40636;52.424;-1.948;2023-02-26T10:36:34;6.97;;;1.88;;
43363;SDS011;40636;52.424;-1.948;2023-02-26T10:39:26;3.25;;;1.45;;
43363;SDS011;40636;52.424;-1.948;2023-02-26T10:41:54;2.28;;;1.35;;
43363;SDS011;40636;52.424;-1.948;2023-02-26T10:44:27;2.72;;;1.33;;
43363;SDS011;40636;52.424;-1.948;2023-02-26T10:49:52;4.03;;;1.20;;
43363;SDS011;40636;52.424;-1.948;2023-02-26T10:52:25;4.93;;;1.27;;
43363;SDS011;40636;52.424;-1.948;2023-02-26T10:57:34;3.10;;;1.42;;
43363;SDS011;40636;52.424;-1.948;2023-02-26T11:00:04;2.17;;;1.40;;
43363;SDS011;40636;52.424;-1.948;2023-02-26T11:02:37;4.72;;;2.00;;
43363;SDS011;40636;52.424;-1.948;2023-02-26T11:05:14;6.85;;;1.50;;
43363;SDS011;40636;52.424;-1.948;2023-02-26T11:08:01;5.95;;;1.20;;
43363;SDS011;40636;52.424;-1.948;2023-02-26T11:11:04;7.45;;;1.30;;
43363;SDS011;40636;52.424;-1.948;2023-02-26T11:13:29;2.97;;;2.05;;
43363;SDS011;40636;52.424;-1.948;2023-02-26T11:16:00;5.28;;;1.15;;
43363;SDS011;40636;52.424;-1.948;2023-02-26T11:18:30;5.97;;;2.17;;
43363;SDS011;40636;52.424;-1.948;2023-02-26T11:21:05;5.47;;;1.35;;
43363;SDS011;40636;52.424;-1.948;2023-02-26T11:23:33;4.95;;;1.48;;
43363;SDS011;40636;52.424;-1.948;2023-02-26T11:26:07;8.32;;;1.73;;
43363;SDS011;40636;52.424;-1.948;2023-02-26T11:28:43;8.23;;;2.40;;
43363;SDS011;40636;52.424;-1.948;2023-02-26T11:31:14;5.03;;;1.67;;
43363;SDS011;40636;52.424;-1.948;2023-02-26T11:33:44;1.45;;;1.30;;
43363;SDS011;40636;52.424;-1.948;2023-02-26T11:36:17;4.25;;;1.35;;
43363;SDS011;40636;52.424;-1.948;2023-02-26T11:38:51;2.85;;;1.48;;
43363;SDS011;40636;52.424;-1.948;2023-02-26T11:41:23;3.22;;;1.20;;
43363;SDS011;40636;52.424;-1.948;2023-02-26T11:43:59;2.60;;;0.90;;
43363;SDS011;40636;52.424;-1.948;2023-02-26T11:46:30;3.83;;;1.52;;
43363;SDS011;40636;52.424;-1.948;2023-02-26T11:49:07;6.50;;;1.30;;
43363;SDS011;40636;52.424;-1.948;2023-02-26T11:51:37;5.18;;;2.63;;
43363;SDS011;40636;52.424;-1.948;2023-02-26T11:54:18;4.07;;;1.20;;
43363;SDS011;40636;52.424;-1.948;2023-02-26T11:56:47;1.67;;;0.90;;
43363;SDS011;40636;52.424;-1.948;2023-02-26T12:01:46;3.53;;;1.48;;
43363;SDS011;40636;52.424;-1.948;2023-02-26T12:04:21;4.40;;;1.27;;
43363;SDS011;40636;52.424;-1.948;2023-02-26T12:06:53;5.65;;;1.83;;
43363;SDS011;40636;52.424;-1.948;2023-02-26T12:09:22;2.47;;;1.42;;
43363;SDS011;40636;52.424;-1.948;2023-02-26T12:19:51;7.72;;;1.85;;
43363;SDS011;40636;52.424;-1.948;2023-02-26T12:30:49;3.55;;;1.45;;
43363;SDS011;40636;52.424;-1.948;2023-02-26T12:41:21;4.15;;;1.88;;
43363;SDS011;40636;52.424;-1.948;2023-02-26T12:43:59;6.50;;;1.65;;
43363;SDS011;40636;52.424;-1.948;2023-02-26T12:46:48;6.07;;;1.52;;
43363;SDS011;40636;52.424;-1.948;2023-02-26T12:52:36;1.67;;;1.33;;
43363;SDS011;40636;52.424;-1.948;2023-02-26T12:55:28;1.92;;;1.25;;
43363;SDS011;40636;52.424;-1.948;2023-02-26T13:01:38;2.10;;;1.10;;
43363;SDS011;40636;52.424;-1.948;2023-02-26T13:13:49;3.53;;;1.10;;
43363;SDS011;40636;52.424;-1.948;2023-02-26T13:16:54;1.35;;;0.82;;
43363;SDS011;40636;52.424;-1.948;2023-02-26T13:19:46;2.85;;;1.35;;
43363;SDS011;40636;52.424;-1.948;2023-02-26T13:22:39;6.88;;;1.50;;
43363;SDS011;40636;52.424;-1.948;2023-02-26T13:31:10;4.28;;;1.23;;
43363;SDS011;40636;52.424;-1.948;2023-02-26T13:33:52;3.60;;;1.33;;
43363;SDS011;40636;52.424;-1.948;2023-02-26T13:36:22;2.88;;;0.90;;
43363;SDS011;40636;52.424;-1.948;2023-02-26T13:50:18;6.05;;;1.20;;
43363;SDS011;40636;52.424;-1.948;2023-02-26T13:52:54;8.82;;;1.55;;
43363;SDS011;40636;52.424;-1.948;2023-02-26T13:55:36;6.90;;;1.63;;
43363;SDS011;40636;52.424;-1.948;2023-02-26T13:58:43;3.70;;;1.17;;
43363;SDS011;40636;52.424;-1.948;2023-02-26T14:01:07;2.88;;;1.08;;
43363;SDS011;40636;52.424;-1.948;2023-02-26T14:04:00;4.55;;;1.52;;
43363;SDS011;40636;52.424;-1.948;2023-02-26T14:17:34;2.00;;;0.98;;
43363;SDS011;40636;52.424;-1.948;2023-02-26T14:27:45;2.92;;;1.23;;
43363;SDS011;40636;52.424;-1.948;2023-02-26T14:30:18;8.43;;;1.25;;
43363;SDS011;40636;52.424;-1.948;2023-02-26T14:33:05;1.60;;;0.70;;
43363;SDS011;40636;52.424;-1.948;2023-02-26T14:35:35;4.25;;;0.95;;
43363;SDS011;40636;52.424;-1.948;2023-02-26T14:38:10;2.50;;;1.00;;
43363;SDS011;40636;52.424;-1.948;2023-02-26T14:40:46;4.78;;;1.52;;
43363;SDS011;40636;52.424;-1.948;2023-02-26T14:43:19;1.35;;;0.80;;
43363;SDS011;40636;52.424;-1.948;2023-02-26T14:46:00;3.15;;;0.75;;
43363;SDS011;40636;52.424;-1.948;2023-02-26T14:48:29;2.03;;;1.30;;
43363;SDS011;40636;52.424;-1.948;2023-02-26T15:07:13;6.50;;;1.20;;
43363;SDS011;40636;52.424;-1.948;2023-02-26T15:15:25;4.13;;;0.80;;
43363;SDS011;40636;52.424;-1.948;2023-02-26T15:23:49;3.92;;;1.20;;
43363;SDS011;40636;52.424;-1.948;2023-02-26T15:26:22;1.40;;;1.00;;
43363;SDS011;40636;52.424;-1.948;2023-02-26T15:28:52;4.93;;;1.25;;
43363;SDS011;40636;52.424;-1.948;2023-02-26T15:31:33;3.80;;;0.90;;
43363;SDS011;40636;52.424;-1.948;2023-02-26T15:34:02;2.70;;;1.48;;
43363;SDS011;40636;52.424;-1.948;2023-02-26T15:36:29;1.98;;;1.10;;
43363;SDS011;40636;52.424;-1.948;2023-02-26T15:39:00;1.55;;;0.60;;
43363;SDS011;40636;52.424;-1.948;2023-02-26T15:41:29;2.33;;;0.95;;
43363;SDS011;40636;52.424;-1.948;2023-02-26T15:43:58;2.08;;;0.68;;
43363;SDS011;40636;52.424;-1.948;2023-02-26T15:46:30;0.80;;;0.80;;
43363;SDS011;40636;52.424;-1.948;2023-02-26T15:49:06;1.83;;;0.88;;
43363;SDS011;40636;52.424;-1.948;2023-02-26T15:51:37;2.60;;;1.05;;
43363;SDS011;40636;52.424;-1.948;2023-02-26T15:54:05;1.10;;;0.82;;
43363;SDS011;40636;52.424;-1.948;2023-02-26T15:56:35;2.40;;;1.15;;
43363;SDS011;40636;52.424;-1.948;2023-02-26T15:59:38;0.90;;;0.80;;
43363;SDS011;40636;52.424;-1.948;2023-02-26T16:02:00;1.63;;;1.00;;
43363;SDS011;40636;52.424;-1.948;2023-02-26T16:04:28;3.97;;;0.90;;
43363;SDS011;40636;52.424;-1.948;2023-02-26T16:06:55;3.55;;;0.90;;
43363;SDS011;40636;52.424;-1.948;2023-02-26T16:09:32;2.65;;;1.27;;
43363;SDS011;40636;52.424;-1.948;2023-02-26T16:14:51;2.33;;;1.20;;
43363;SDS011;40636;52.424;-1.948;2023-02-26T16:17:24;1.10;;;1.00;;
43363;SDS011;40636;52.424;-1.948;2023-02-26T16:19:52;1.38;;;1.17;;
43363;SDS011;40636;52.424;-1.948;2023-02-26T16:27:32;4.88;;;1.02;;
43363;SDS011;40636;52.424;-1.948;2023-02-26T16:30:01;2.90;;;1.00;;
43363;SDS011;40636;52.424;-1.948;2023-02-26T16:32:30;5.38;;;1.10;;
43363;SDS011;40636;52.424;-1.948;2023-02-26T16:35:07;3.28;;;1.08;;
43363;SDS011;40636;52.424;-1.948;2023-02-26T16:37:37;3.83;;;1.05;;
43363;SDS011;40636;52.424;-1.948;2023-02-26T16:42:52;4.00;;;1.38;;
43363;SDS011;40636;52.424;-1.948;2023-02-26T16:50:37;2.42;;;1.80;;
43363;SDS011;40636;52.424;-1.948;2023-02-26T16:55:46;3.30;;;1.00;;
43363;SDS011;40636;52.424;-1.948;2023-02-26T16:58:17;1.80;;;1.70;;
43363;SDS011;40636;52.424;-1.948;2023-02-26T17:00:48;3.15;;;1.23;;
43363;SDS011;40636;52.424;-1.948;2023-02-26T17:03:20;2.22;;;1.02;;
43363;SDS011;40636;52.424;-1.948;2023-02-26T17:05:59;3.00;;;1.13;;
43363;SDS011;40636;52.424;-1.948;2023-02-26T17:08:33;2.15;;;1.02;;
43363;SDS011;40636;52.424;-1.948;2023-02-26T17:11:04;1.00;;;0.85;;
43363;SDS011;40636;52.424;-1.948;2023-02-26T17:13:33;2.58;;;1.17;;
43363;SDS011;40636;52.424;-1.948;2023-02-26T17:16:02;7.45;;;1.40;;
43363;SDS011;40636;52.424;-1.948;2023-02-26T17:18:31;1.45;;;1.17;;
43363;SDS011;40636;52.424;-1.948;2023-02-26T17:20:58;2.50;;;1.00;;
43363;SDS011;40636;52.424;-1.948;2023-02-26T17:23:35;2.20;;;1.75;;
43363;SDS011;40636;52.424;-1.948;2023-02-26T17:26:03;1.85;;;1.15;;
43363;SDS011;40636;52.424;-1.948;2023-02-26T17:28:35;5.55;;;1.52;;
43363;SDS011;40636;52.424;-1.948;2023-02-26T17:31:06;1.67;;;1.35;;
43363;SDS011;40636;52.424;-1.948;2023-02-26T17:33:32;8.57;;;1.73;;
43363;SDS011;40636;52.424;-1.948;2023-02-26T17:36:01;1.42;;;1.33;;
43363;SDS011;40636;52.424;-1.948;2023-02-26T17:38:29;3.63;;;1.02;;
43363;SDS011;40636;52.424;-1.948;2023-02-26T17:40:58;2.75;;;1.33;;
43363;SDS011;40636;52.424;-1.948;2023-02-26T17:43:26;2.05;;;1.13;;
43363;SDS011;40636;52.424;-1.948;2023-02-26T17:45:53;1.65;;;1.00;;
43363;SDS011;40636;52.424;-1.948;2023-02-26T17:48:21;3.33;;;1.75;;
43363;SDS011;40636;52.424;-1.948;2023-02-26T17:50:54;2.45;;;1.60;;
43363;SDS011;40636;52.424;-1.948;2023-02-26T17:53:23;4.95;;;1.58;;
43363;SDS011;40636;52.424;-1.948;2023-02-26T17:55:54;1.15;;;1.05;;
43363;SDS011;40636;52.424;-1.948;2023-02-26T17:58:34;3.78;;;1.83;;
43363;SDS011;40636;52.424;-1.948;2023-02-26T18:01:00;2.05;;;1.15;;
43363;SDS011;40636;52.424;-1.948;2023-02-26T18:03:29;2.75;;;1.45;;
43363;SDS011;40636;52.424;-1.948;2023-02-26T18:05:56;3.55;;;1.30;;
43363;SDS011;40636;52.424;-1.948;2023-02-26T18:08:24;3.10;;;1.20;;
43363;SDS011;40636;52.424;-1.948;2023-02-26T18:10:51;2.08;;;1.15;;
43363;SDS011;40636;52.424;-1.948;2023-02-26T18:13:19;3.05;;;1.30;;
43363;SDS011;40636;52.424;-1.948;2023-02-26T18:15:46;3.90;;;1.67;;
43363;SDS011;40636;52.424;-1.948;2023-02-26T18:18:22;1.38;;;1.23;;
43363;SDS011;40636;52.424;-1.948;2023-02-26T18:20:50;2.53;;;1.40;;